Time;durP1;ratioP1;P1;durP2;ratioP2;P2;SDS_P1;SDS_P2;PMS_P1;PMS_P2;Temp;Humidity;BMP_temperature;BMP_pressure;BME280_temperature;BME280_humidity;BME280_pressure;Samples;Min_cycle;Max_cycle;Signal;HPM_P1;HPM_P2
2023/04/03 00:00:06;;;;;;;11.60;5.13;;;;;;;0.95;81.93;100486.59;5033502;28;20522;-76
2023/04/03 00:02:32;;;;;;;17.98;6.47;;;;;;;0.87;82.51;100465.16;5033114;28;20029;-75
2023/04/03 00:04:57;;;;;;;13.57;5.18;;;;;;;0.76;82.13;100469.41;5033276;28;20072;-75
2023/04/03 00:07:23;;;;;;;11.52;4.75;;;;;;;0.92;83.02;100490.84;5033162;28;20021;-75
2023/04/03 00:09:48;;;;;;;12.20;4.70;;;;;;;0.79;82.90;100473.66;5033031;28;20432;-75
2023/04/03 00:12:13;;;;;;;12.45;4.35;;;;;;;0.84;82.74;100482.25;5032790;28;20021;-75
2023/04/03 00:14:39;;;;;;;12.93;5.30;;;;;;;0.81;83.08;100497.63;5033416;28;20060;-75
2023/04/03 00:17:04;;;;;;;10.15;5.32;;;;;;;0.80;83.08;100494.22;5033014;28;20045;-75
2023/04/03 00:19:30;;;;;;;13.57;5.90;;;;;;;0.70;83.34;100492.41;5033013;28;20036;-75
2023/04/03 00:21:55;;;;;;;16.10;4.90;;;;;;;0.71;83.34;100509.50;5032791;28;20080;-76
2023/04/03 00:24:20;;;;;;;11.73;4.80;;;;;;;0.72;84.19;100498.44;5032612;28;20097;-75
2023/04/03 00:26:46;;;;;;;11.75;5.63;;;;;;;0.86;83.83;100495.94;5032852;28;20053;-76
2023/04/03 00:29:11;;;;;;;9.60;4.50;;;;;;;0.60;83.33;100468.44;5032577;28;20469;-75
2023/04/03 00:31:36;;;;;;;14.23;5.00;;;;;;;0.81;84.24;100500.19;5032538;28;20053;-76
2023/04/03 00:34:02;;;;;;;23.85;8.68;;;;;;;0.60;83.96;100478.69;5032768;28;20021;-76
2023/04/03 00:36:27;;;;;;;9.63;4.60;;;;;;;0.73;84.03;100497.56;5032542;28;20057;-75
2023/04/03 00:38:52;;;;;;;13.75;4.78;;;;;;;0.77;84.51;100503.59;5032625;28;20080;-75
2023/04/03 00:41:18;;;;;;;7.80;4.00;;;;;;;0.75;84.01;100499.28;5032349;28;20026;-76
2023/04/03 00:43:43;;;;;;;12.73;5.32;;;;;;;0.86;83.88;100496.81;5031961;28;20040;-75
2023/04/03 00:46:08;;;;;;;9.60;4.20;;;;;;;0.73;84.52;100501.00;5032536;28;20040;-75
2023/04/03 00:48:48;;;;;;;12.57;5.03;;;;;;;0.57;84.67;100480.38;5032280;28;20520;-75
2023/04/03 00:51:17;;;;;;;13.60;4.13;;;;;;;0.49;84.14;100447.84;5032180;28;20473;-75
2023/04/03 00:53:49;;;;;;;10.60;4.45;;;;;;;0.79;84.81;100497.59;5032339;28;20080;-76
2023/04/03 00:56:17;;;;;;;14.55;6.15;;;;;;;0.75;84.44;100504.41;5032175;28;20095;-76
2023/04/03 00:59:04;;;;;;;15.10;5.65;;;;;;;0.66;85.26;100513.75;5032455;28;20033;-75
2023/04/03 01:01:30;;;;;;;11.48;4.88;;;;;;;0.79;85.65;100510.41;5032213;28;20400;-76
2023/04/03 01:03:56;;;;;;;11.02;5.57;;;;;;;0.73;85.73;100511.25;5032209;28;20025;-76
2023/04/03 01:06:27;;;;;;;8.07;4.18;;;;;;;0.64;85.90;100488.13;5031940;28;20172;-76
2023/04/03 01:08:53;;;;;;;18.40;6.80;;;;;;;0.53;85.02;100499.13;5032449;28;20064;-75
2023/04/03 01:11:20;;;;;;;14.00;6.43;;;;;;;0.60;86.18;100509.44;5032093;28;20029;-76
2023/04/03 01:13:45;;;;;;;12.52;5.28;;;;;;;0.62;85.87;100494.06;5030869;28;20036;-75
2023/04/03 01:16:11;;;;;;;11.43;5.28;;;;;;;0.77;85.66;100529.22;5032161;28;20021;-76
2023/04/03 01:18:39;;;;;;;10.80;4.72;;;;;;;0.61;86.16;100511.16;5031857;28;20492;-76
2023/04/03 01:21:14;;;;;;;12.85;4.88;;;;;;;0.52;86.66;100505.97;5031914;28;20044;-76
2023/04/03 01:23:43;;;;;;;10.05;5.05;;;;;;;0.77;86.24;100534.34;5032515;28;20397;-76
2023/04/03 01:26:09;;;;;;;17.13;5.88;;;;;;;0.60;86.68;100509.44;5030861;28;20029;-76
2023/04/03 01:28:35;;;;;;;15.98;4.80;;;;;;;0.78;86.54;100534.34;5031631;28;20046;-76
2023/04/03 01:31:16;;;;;;;10.05;4.18;;;;;;;0.71;86.35;100546.25;5031926;28;20363;-76
2023/04/03 01:33:42;;;;;;;10.52;4.60;;;;;;;0.64;86.56;100510.34;5031729;28;20021;-76
2023/04/03 01:36:09;;;;;;;13.13;4.72;;;;;;;0.56;86.93;100527.34;5032091;28;20481;-76
2023/04/03 01:38:34;;;;;;;8.18;4.30;;;;;;;0.69;87.07;100536.84;5030474;28;20496;-76
2023/04/03 01:41:00;;;;;;;9.60;4.30;;;;;;;0.77;86.91;100548.03;5031924;28;20057;-76
2023/04/03 01:43:25;;;;;;;8.52;4.07;;;;;;;0.53;87.33;100530.75;5031640;28;20029;-76
2023/04/03 01:45:52;;;;;;;9.65;3.88;;;;;;;0.64;87.43;100528.28;5031873;28;20026;-76
2023/04/03 01:48:18;;;;;;;11.52;4.70;;;;;;;0.49;87.34;100534.97;5031550;28;20037;-76
2023/04/03 01:50:43;;;;;;;10.77;4.68;;;;;;;0.37;87.85;100532.31;5031821;28;20378;-76
2023/04/03 01:53:08;;;;;;;11.88;4.07;;;;;;;0.40;88.52;100526.38;5031824;28;20369;-76
2023/04/03 01:55:34;;;;;;;12.50;4.25;;;;;;;0.54;88.02;100564.91;5033644;28;20057;-76
2023/04/03 01:57:59;;;;;;;8.07;3.58;;;;;;;0.46;88.65;100562.28;5035688;28;20040;-76
2023/04/03 02:00:24;;;;;;;11.02;4.35;;;;;;;0.46;89.08;100567.41;5035424;28;20032;-76
2023/04/03 02:02:50;;;;;;;11.10;4.55;;;;;;;0.50;89.33;100567.44;5035821;28;20392;-76
2023/04/03 02:05:15;;;;;;;8.73;4.88;;;;;;;0.40;89.18;100550.28;5035437;28;20032;-76
2023/04/03 02:07:41;;;;;;;26.00;7.50;;;;;;;0.34;89.17;100573.31;5035640;28;20470;-75
2023/04/03 02:10:06;;;;;;;14.57;6.43;;;;;;;0.27;89.92;100539.91;5035470;28;20107;-75
2023/04/03 02:12:32;;;;;;;14.75;4.97;;;;;;;0.06;90.34;100513.25;5035196;28;20064;-75
2023/04/03 02:14:57;;;;;;;12.98;4.80;;;;;;;0.11;90.15;100539.75;5035376;28;20478;-75
2023/04/03 02:17:22;;;;;;;15.60;4.70;;;;;;;0.24;90.22;100566.34;5034972;28;20029;-76
2023/04/03 02:19:47;;;;;;;18.73;6.38;;;;;;;0.24;90.43;100566.34;5035507;28;20026;-76
2023/04/03 02:22:13;;;;;;;12.90;5.25;;;;;;;0.03;90.58;100537.97;5035180;28;20087;-75
2023/04/03 02:24:40;;;;;;;10.93;4.80;;;;;;;0.14;91.19;100537.22;5034938;28;20035;-75
2023/04/03 02:27:05;;;;;;;16.33;6.30;;;;;;;0.22;90.36;100561.22;5035068;28;20486;-76
2023/04/03 02:29:30;;;;;;;7.80;3.92;;;;;;;0.11;91.03;100542.31;5034807;28;20080;-76
2023/04/03 02:31:56;;;;;;;13.57;4.05;;;;;;;0.17;90.34;100550.06;5034962;28;20369;-75
2023/04/03 02:34:21;;;;;;;10.52;4.00;;;;;;;0.36;90.88;100579.28;5035180;28;20030;-75
2023/04/03 02:36:47;;;;;;;8.55;3.78;;;;;;;0.28;90.79;100573.22;5035109;28;20021;-76
2023/04/03 02:39:12;;;;;;;9.43;3.80;;;;;;;0.18;90.56;100546.66;5034996;28;20108;-75
2023/04/03 02:41:37;;;;;;;12.23;4.05;;;;;;;0.09;90.72;100551.69;5034743;28;20117;-76
2023/04/03 02:44:05;;;;;;;14.05;4.10;;;;;;;0.26;90.78;100577.50;5034867;28;20022;-75
2023/04/03 02:46:31;;;;;;;13.88;4.03;;;;;;;0.04;91.17;100555.03;5034510;28;20075;-75
2023/04/03 02:48:56;;;;;;;10.50;3.97;;;;;;;0.08;91.57;100557.66;5035025;28;20033;-76
2023/04/03 02:51:22;;;;;;;12.50;4.03;;;;;;;-0.04;91.90;100571.19;5034917;28;20108;-76
2023/04/03 02:53:48;;;;;;;9.93;3.90;;;;;;;-0.22;92.09;100532.56;5034591;28;20489;-76
2023/04/03 02:56:13;;;;;;;10.95;4.05;;;;;;;-0.07;91.80;100544.69;5034742;28;20140;-77
2023/04/03 02:58:39;;;;;;;11.40;4.57;;;;;;;0.03;92.72;100581.50;5034525;28;20032;-77
2023/04/03 03:01:04;;;;;;;12.35;4.65;;;;;;;-0.13;92.41;100565.09;5034519;28;20032;-77
2023/04/03 03:03:29;;;;;;;17.55;6.00;;;;;;;-0.29;92.89;100561.50;5034927;28;20033;-77
2023/04/03 03:06:02;;;;;;;12.85;4.90;;;;;;;-0.25;92.33;100550.47;5034339;28;20495;-77
2023/04/03 03:08:27;;;;;;;11.80;4.82;;;;;;;-0.03;92.99;100582.31;5034115;28;20033;-77
2023/04/03 03:10:52;;;;;;;16.35;6.65;;;;;;;-0.14;93.21;100578.75;5034344;28;20128;-76
2023/04/03 03:13:18;;;;;;;14.43;6.00;;;;;;;0.06;93.19;100587.50;5034288;28;20025;-77
2023/04/03 03:15:43;;;;;;;11.32;4.65;;;;;;;-0.14;93.01;100568.50;5033995;28;20032;-78
2023/04/03 03:18:08;;;;;;;17.77;4.53;;;;;;;-0.23;93.31;100569.25;5034349;28;20032;-77
2023/04/03 03:20:34;;;;;;;15.57;4.63;;;;;;;0.03;92.91;100590.03;5034360;28;20103;-77
2023/04/03 03:22:59;;;;;;;11.68;4.15;;;;;;;-0.06;92.87;100578.00;5034222;28;20033;-78
2023/04/03 03:25:24;;;;;;;11.18;4.00;;;;;;;0.02;92.39;100572.97;5033932;28;20033;-77
2023/04/03 03:27:50;;;;;;;12.60;5.07;;;;;;;-0.26;92.96;100538.50;5033940;28;20103;-78
2023/04/03 03:30:15;;;;;;;12.60;4.10;;;;;;;0.13;92.52;100591.03;5033831;28;20044;-78
2023/04/03 03:32:40;;;;;;;8.70;3.88;;;;;;;-0.11;92.55;100542.94;5033979;28;20116;-78
2023/04/03 03:35:06;;;;;;;10.18;3.83;;;;;;;0.10;92.30;100579.03;5034373;28;20104;-78
2023/04/03 03:37:31;;;;;;;12.98;4.47;;;;;;;-0.23;92.27;100560.72;5033744;28;20492;-78
2023/04/03 03:39:57;;;;;;;11.65;3.50;;;;;;;0.02;93.54;100592.59;5033793;28;20022;-78
2023/04/03 03:42:22;;;;;;;9.95;3.97;;;;;;;-0.17;93.03;100565.91;5033843;28;20040;-78
2023/04/03 03:44:47;;;;;;;13.02;4.22;;;;;;;-0.05;93.65;100586.53;5033662;28;20607;-79
2023/04/03 03:47:13;;;;;;;11.20;4.07;;;;;;;-0.17;92.98;100563.34;5033621;28;20469;-79
2023/04/03 03:49:38;;;;;;;12.38;4.18;;;;;;;-0.11;93.47;100583.91;5033574;28;20025;-79
2023/04/03 03:52:03;;;;;;;15.07;4.70;;;;;;;-0.08;93.56;100592.50;5032359;28;20025;-78
2023/04/03 03:54:29;;;;;;;11.13;6.60;;;;;;;-0.08;93.05;100589.06;5032104;28;20118;-79
2023/04/03 03:56:54;;;;;;;15.32;4.57;;;;;;;0.02;92.83;100593.44;5033545;28;20025;-79
2023/04/03 03:59:20;;;;;;;13.27;4.05;;;;;;;-0.37;93.29;100579.34;5033402;28;20041;-79
2023/04/03 04:01:45;;;;;;;12.13;4.38;;;;;;;-0.45;93.68;100567.28;5033395;28;20461;-79
2023/04/03 04:04:11;;;;;;;17.27;5.00;;;;;;;-0.31;93.47;100566.59;5033287;28;20026;-78
2023/04/03 04:06:36;;;;;;;11.40;3.55;;;;;;;-0.24;94.44;100608.50;5033485;28;20056;-79
2023/04/03 04:09:01;;;;;;;8.77;3.25;;;;;;;-0.31;94.37;100571.72;5033390;28;20091;-78
2023/04/03 04:11:27;;;;;;;12.68;3.72;;;;;;;-0.16;94.18;100596.66;5033110;28;20029;-78
2023/04/03 04:13:52;;;;;;;12.68;4.13;;;;;;;-0.37;93.89;100574.22;5033143;28;20036;-79
2023/04/03 04:16:18;;;;;;;12.30;4.55;;;;;;;-0.34;93.80;100589.63;5033747;28;20079;-78
2023/04/03 04:18:43;;;;;;;15.10;3.80;;;;;;;-0.26;94.07;100593.09;5032393;28;20084;-78
2023/04/03 04:21:08;;;;;;;11.65;3.88;;;;;;;-0.32;93.54;100585.38;5033562;28;20036;-78
2023/04/03 04:23:34;;;;;;;10.80;3.97;;;;;;;-0.09;93.88;100611.22;5031668;28;20029;-80
2023/04/03 04:25:59;;;;;;;12.32;4.05;;;;;;;-0.13;94.21;100619.72;5033022;28;20033;-78
2023/04/03 04:28:24;;;;;;;14.27;4.03;;;;;;;-0.34;93.60;100589.63;5032619;28;20080;-78
2023/04/03 04:30:50;;;;;;;11.50;4.40;;;;;;;-0.34;94.18;100593.84;5032687;28;20071;-78
2023/04/03 04:33:16;;;;;;;12.63;4.55;;;;;;;-0.27;94.25;100593.94;5032668;28;20036;-78
2023/04/03 04:35:42;;;;;;;10.63;4.18;;;;;;;-0.37;93.96;100620.28;5032641;28;20108;-78
2023/04/03 04:38:08;;;;;;;11.35;4.30;;;;;;;-0.31;94.51;100622.91;5035973;28;20067;-78
2023/04/03 04:40:33;;;;;;;14.35;5.22;;;;;;;-0.35;94.54;100603.22;5052429;28;20025;-78
2023/04/03 04:42:59;;;;;;;13.13;4.60;;;;;;;-0.33;94.84;100629.72;5052480;28;20036;-78
2023/04/03 04:45:24;;;;;;;15.20;4.68;;;;;;;-0.30;94.19;100631.44;5052486;28;20029;-78
2023/04/03 04:47:51;;;;;;;15.23;4.85;;;;;;;-0.11;93.74;100641.09;5052489;28;20519;-78
2023/04/03 04:50:16;;;;;;;15.68;4.90;;;;;;;-0.14;93.69;100641.06;5052406;28;20501;-78
2023/04/03 04:52:42;;;;;;;8.43;4.60;;;;;;;-0.33;93.31;100603.28;5052399;28;20025;-78
2023/04/03 04:55:07;;;;;;;13.32;4.90;;;;;;;-0.30;93.33;100606.72;5052684;28;20112;-78
2023/04/03 04:57:32;;;;;;;13.45;5.15;;;;;;;0.04;93.14;100627.59;5052075;28;20036;-78
2023/04/03 04:59:58;;;;;;;7.95;4.80;;;;;;;0.06;92.32;100620.81;5052339;28;20771;-78
2023/04/03 05:02:23;;;;;;;14.15;5.50;;;;;;;-0.09;92.44;100652.22;5052346;28;20037;-78
2023/04/03 05:04:50;;;;;;;10.18;4.90;;;;;;;-0.06;92.76;100624.09;5052415;28;20025;-78
2023/04/03 05:07:15;;;;;;;18.30;5.45;;;;;;;0.27;92.31;100644.97;5052207;28;20021;-79
2023/04/03 05:09:42;;;;;;;10.43;4.65;;;;;;;0.31;91.35;100619.38;5051831;28;20029;-78
2023/04/03 05:12:07;;;;;;;15.00;5.10;;;;;;;0.57;91.06;100644.41;5052269;28;20055;-78
2023/04/03 05:14:32;;;;;;;25.30;11.35;;;;;;;0.44;91.23;100630.63;5050437;28;20472;-78
2023/04/03 05:16:58;;;;;;;36.47;11.57;;;;;;;0.38;90.74;100654.50;5050979;28;20032;-78
2023/04/03 05:19:23;;;;;;;95.13;26.27;;;;;;;0.50;91.07;100664.84;5051974;28;20029;-78
2023/04/03 05:21:48;;;;;;;58.60;16.55;;;;;;;0.48;91.00;100633.22;5051694;28;20431;-78
2023/04/03 05:24:15;;;;;;;74.82;24.52;;;;;;;0.62;90.70;100630.78;5051955;28;20029;-79
2023/04/03 05:26:41;;;;;;;16.67;6.45;;;;;;;0.60;90.06;100616.25;5051466;28;20055;-79
2023/04/03 05:29:06;;;;;;;31.85;8.85;;;;;;;0.70;89.59;100605.22;5051503;28;20017;-76
2023/04/03 05:31:32;;;;;;;13.60;4.55;;;;;;;0.72;89.25;100629.19;5052124;28;20485;-77
2023/04/03 05:33:58;;;;;;;28.67;9.82;;;;;;;0.88;88.71;100653.25;5052019;28;20074;-78
2023/04/03 05:36:23;;;;;;;41.75;12.23;;;;;;;0.96;88.40;100665.28;5051894;28;20032;-77
2023/04/03 05:38:49;;;;;;;37.90;11.75;;;;;;;1.08;89.12;100669.66;5051624;28;20044;-77
2023/04/03 05:41:15;;;;;;;52.05;14.60;;;;;;;1.14;88.52;100633.81;5051552;28;20481;-78
2023/04/03 05:43:40;;;;;;;61.65;20.90;;;;;;;1.45;87.31;100657.97;5051452;28;20044;-78
2023/04/03 05:46:14;;;;;;;21.50;6.85;;;;;;;1.71;86.51;100662.41;5036677;28;20436;-78
2023/04/03 05:48:39;;;;;;;51.08;14.20;;;;;;;1.72;85.84;100631.59;5042665;28;20148;-79
2023/04/03 05:51:06;;;;;;;73.93;20.52;;;;;;;2.11;84.59;100668.63;5035966;28;20063;-78
2023/04/03 05:53:35;;;;;;;34.10;10.77;;;;;;;2.15;84.28;100654.03;5051352;28;20025;-79
2023/04/03 05:56:00;;;;;;;27.23;9.05;;;;;;;2.45;83.62;100663.59;5041864;28;20029;-79
2023/04/03 05:58:25;;;;;;;42.50;13.00;;;;;;;2.40;82.24;100662.69;5031685;28;20561;-78
2023/04/03 06:00:51;;;;;;;29.65;10.18;;;;;;;2.48;82.09;100643.84;5031609;28;20033;-79
2023/04/03 06:03:16;;;;;;;18.42;5.82;;;;;;;2.64;82.08;100674.75;5031730;28;20029;-79
2023/04/03 06:05:42;;;;;;;20.85;7.57;;;;;;;1.92;82.71;100662.53;5050496;28;20432;-79
2023/04/03 06:08:08;;;;;;;50.30;14.23;;;;;;;1.84;83.70;100679.59;5051296;28;20060;-78
2023/04/03 06:10:34;;;;;;;38.10;13.45;;;;;;;2.22;83.66;100684.06;5051121;28;20029;-79
2023/04/03 06:12:59;;;;;;;30.35;9.65;;;;;;;1.96;83.04;100681.38;5051022;28;20091;-79
2023/04/03 06:15:25;;;;;;;11.73;4.95;;;;;;;1.87;83.77;100651.38;5051227;28;20039;-79
2023/04/03 06:17:50;;;;;;;20.17;6.68;;;;;;;1.79;84.17;100667.59;5051196;28;20079;-79
2023/04/03 06:20:16;;;;;;;34.30;10.75;;;;;;;1.63;84.20;100674.34;5051412;28;20029;-80
2023/04/03 06:22:41;;;;;;;9.50;4.60;;;;;;;1.79;83.74;100658.19;5032506;28;20026;-78
2023/04/03 06:25:08;;;;;;;16.35;6.20;;;;;;;1.96;83.74;100686.53;5031386;28;20055;-79
2023/04/03 06:27:33;;;;;;;18.17;6.72;;;;;;;2.20;83.35;100683.22;5031051;28;20104;-78
2023/04/03 06:29:58;;;;;;;19.25;6.30;;;;;;;2.32;82.80;100677.22;5031227;28;20113;-79
2023/04/03 06:32:23;;;;;;;16.85;5.65;;;;;;;2.29;82.92;100683.25;5031497;28;20064;-78
2023/04/03 06:34:49;;;;;;;15.68;6.82;;;;;;;2.60;81.99;100691.03;5031314;28;20116;-78
2023/04/03 06:37:19;;;;;;;12.13;6.18;;;;;;;1.99;81.84;100669.41;5031401;28;20113;-79
2023/04/03 06:39:45;;;;;;;23.13;7.43;;;;;;;2.39;82.34;100699.53;5029712;28;20037;-78
2023/04/03 06:42:10;;;;;;;20.73;8.65;;;;;;;2.37;82.16;100661.00;5033086;28;20067;-78
2023/04/03 06:44:36;;;;;;;12.02;5.10;;;;;;;2.70;81.49;100677.38;5034959;28;20485;-78
2023/04/03 06:47:01;;;;;;;17.80;5.88;;;;;;;2.93;79.34;100688.53;5035019;28;20022;-78
2023/04/03 06:49:27;;;;;;;22.45;7.88;;;;;;;2.97;79.26;100672.25;5034649;28;20515;-78
2023/04/03 06:51:53;;;;;;;10.93;5.03;;;;;;;3.16;78.49;100696.28;5034464;28;20033;-78
2023/04/03 06:54:18;;;;;;;15.88;7.15;;;;;;;4.06;77.03;100704.75;5034708;28;20410;-78
2023/04/03 06:56:44;;;;;;;13.80;6.20;;;;;;;3.95;75.88;100681.56;5050646;28;20028;-78
2023/04/03 06:59:12;;;;;;;12.13;5.78;;;;;;;4.35;75.03;100700.34;5054704;28;20082;-78
2023/04/03 07:01:38;;;;;;;10.20;5.65;;;;;;;3.92;74.90;100715.09;5054320;28;20028;-78
2023/04/03 07:04:03;;;;;;;13.05;6.78;;;;;;;3.94;75.45;100718.50;5054457;28;20047;-80
2023/04/03 07:06:29;;;;;;;11.48;5.65;;;;;;;4.07;74.69;100701.28;5054354;28;20045;-77
2023/04/03 07:08:55;;;;;;;19.85;8.73;;;;;;;3.98;75.65;100704.75;5052715;28;20025;-77
2023/04/03 07:11:20;;;;;;;12.90;6.95;;;;;;;4.27;74.00;100706.38;5054228;28;20033;-79
2023/04/03 07:13:46;;;;;;;19.10;8.70;;;;;;;4.04;74.42;100714.19;5053882;28;20432;-79
2023/04/03 07:16:11;;;;;;;13.95;6.85;;;;;;;4.96;71.94;100657.81;5053063;28;20037;-77
2023/04/03 07:18:36;;;;;;;8.90;4.75;;;;;;;5.78;68.29;100714.81;5054059;28;20040;-77
2023/04/03 07:21:03;;;;;;;11.23;6.70;;;;;;;5.70;67.99;100702.81;5054116;28;20033;-77
2023/04/03 07:23:28;;;;;;;8.57;4.97;;;;;;;7.64;66.01;100701.03;5054111;28;20032;-76
2023/04/03 07:25:54;;;;;;;12.82;5.18;;;;;;;9.02;59.97;100719.88;5053782;28;20469;-79
2023/04/03 07:28:20;;;;;;;19.05;6.13;;;;;;;7.94;60.51;100720.38;5054114;28;20531;-79
2023/04/03 07:30:58;;;;;;;11.48;5.38;;;;;;;7.58;60.40;100740.88;5053740;28;20540;-79
2023/04/03 07:33:24;;;;;;;12.13;5.93;;;;;;;8.35;59.31;100693.63;5053907;28;20107;-79
2023/04/03 07:35:49;;;;;;;11.65;5.75;;;;;;;9.22;57.18;100698.59;5053629;28;20128;-78
2023/04/03 07:38:16;;;;;;;10.07;5.00;;;;;;;10.65;53.99;100701.69;5053640;28;20021;-77
2023/04/03 07:40:46;;;;;;;17.23;5.82;;;;;;;10.58;54.02;100704.53;5053710;28;20376;-77
2023/04/03 07:43:11;;;;;;;16.00;7.38;;;;;;;10.36;54.01;100702.53;5053598;28;20536;-77
2023/04/03 07:45:37;;;;;;;12.82;5.80;;;;;;;10.81;51.61;100715.09;5053562;28;20112;-80
2023/04/03 07:48:02;;;;;;;25.15;13.95;;;;;;;12.13;50.19;100735.09;5052393;28;20064;-77
2023/04/03 07:50:30;;;;;;;40.60;23.95;;;;;;;13.26;48.11;100718.66;5053632;28;20155;-77
2023/04/03 07:52:57;;;;;;;32.42;13.40;;;;;;;12.93;46.58;100734.72;5053102;28;20104;-77
2023/04/03 07:55:22;;;;;;;7.22;4.00;;;;;;;11.70;48.74;100725.28;5046930;28;20500;-77
2023/04/03 07:57:48;;;;;;;16.38;8.05;;;;;;;11.43;49.22;100721.84;5033603;28;20017;-77
2023/04/03 08:00:14;;;;;;;16.30;8.43;;;;;;;12.23;47.96;100714.75;5033662;28;20172;-77
2023/04/03 08:02:39;;;;;;;10.70;5.13;;;;;;;10.54;49.66;100731.56;5033558;28;20029;-77
2023/04/03 08:05:05;;;;;;;10.57;6.32;;;;;;;9.09;53.27;100738.78;5033370;28;20026;-77
2023/04/03 08:07:30;;;;;;;9.43;5.32;;;;;;;7.92;54.53;100717.81;5033577;28;20017;-77
2023/04/03 08:09:56;;;;;;;13.48;6.43;;;;;;;6.98;57.34;100736.63;5033201;28;20025;-78
2023/04/03 08:12:22;;;;;;;13.80;7.05;;;;;;;7.22;58.36;100745.78;5033427;28;20018;-77
2023/04/03 08:14:47;;;;;;;15.23;6.97;;;;;;;6.66;58.51;100737.09;5032849;28;20036;-76
2023/04/03 08:17:12;;;;;;;16.95;8.35;;;;;;;6.55;59.83;100718.25;5033166;28;20032;-77
2023/04/03 08:19:39;;;;;;;14.35;5.95;;;;;;;5.74;61.15;100721.75;5033157;28;20056;-77
2023/04/03 08:22:05;;;;;;;11.63;5.90;;;;;;;5.36;61.24;100743.59;5033132;28;20057;-77
2023/04/03 08:24:31;;;;;;;18.10;8.43;;;;;;;5.25;61.48;100742.81;5033194;28;20076;-77
2023/04/03 08:26:57;;;;;;;13.15;5.88;;;;;;;4.66;62.50;100677.81;5032870;28;20041;-77
2023/04/03 08:29:23;;;;;;;19.67;9.38;;;;;;;4.69;63.03;100752.63;5033193;28;20424;-77
2023/04/03 08:31:50;;;;;;;87.60;40.78;;;;;;;4.32;64.16;100731.28;5032448;28;20065;-78
2023/04/03 08:34:15;;;;;;;35.20;15.95;;;;;;;4.33;64.65;100742.47;5032620;28;20440;-78
2023/04/03 08:36:41;;;;;;;23.27;12.48;;;;;;;4.27;64.24;100735.59;5032949;28;20072;-76
2023/04/03 08:39:07;;;;;;;7.90;3.95;;;;;;;4.13;64.06;100735.66;5032929;28;20017;-76
2023/04/03 08:41:35;;;;;;;11.75;5.57;;;;;;;4.48;64.01;100743.25;5032864;28;20032;-76
2023/04/03 08:44:18;;;;;;;10.45;5.95;;;;;;;4.55;63.93;100731.22;5032276;28;20496;-77
2023/04/03 08:47:06;;;;;;;12.20;4.72;;;;;;;4.48;63.82;100768.22;5032881;28;20022;-77
2023/04/03 08:49:47;;;;;;;15.95;6.20;;;;;;;4.62;63.63;100752.66;5032794;28;20412;-77
2023/04/03 08:52:18;;;;;;;7.95;4.15;;;;;;;4.84;63.99;100759.41;5032504;28;20029;-77
2023/04/03 08:54:56;;;;;;;8.25;3.72;;;;;;;4.97;62.97;100742.13;5039225;28;20024;-77
2023/04/03 08:57:34;;;;;;;10.23;4.70;;;;;;;5.40;62.77;100745.28;5052140;28;20029;-78
2023/04/03 09:00:20;;;;;;;14.43;5.20;;;;;;;4.58;62.80;100704.50;5052174;28;20055;-78
2023/04/03 09:02:54;;;;;;;10.70;4.07;;;;;;;4.80;62.78;100739.66;5052201;28;20033;-78
2023/04/03 09:05:26;;;;;;;11.82;4.15;;;;;;;4.67;62.93;100719.94;5051461;28;20132;-78
2023/04/03 09:08:00;;;;;;;9.20;4.32;;;;;;;5.01;62.97;100749.00;5051501;28;20032;-78
2023/04/03 09:10:31;;;;;;;10.10;4.47;;;;;;;4.77;62.22;100700.13;5052086;28;20025;-78
2023/04/03 09:13:20;;;;;;;12.77;5.97;;;;;;;5.08;62.74;100739.50;5051954;28;20080;-78
2023/04/03 09:15:45;;;;;;;19.30;7.70;;;;;;;5.09;61.36;100723.13;5051949;28;20431;-78
2023/04/03 09:18:23;;;;;;;10.05;5.35;;;;;;;4.75;60.11;100719.03;5052004;28;20025;-78
2023/04/03 09:21:13;;;;;;;10.50;5.20;;;;;;;5.14;59.52;100749.78;5051684;28;20029;-78
2023/04/03 09:23:55;;;;;;;16.25;6.78;;;;;;;4.46;59.49;100728.66;5052129;28;20031;-78
2023/04/03 09:26:29;;;;;;;19.25;7.20;;;;;;;4.40;60.57;100690.84;5051896;28;20039;-80
2023/04/03 09:28:58;;;;;;;17.17;5.75;;;;;;;4.48;60.50;100743.25;5051537;28;20071;-78
2023/04/03 09:31:27;;;;;;;13.90;6.30;;;;;;;4.47;60.52;100732.97;5051854;28;20055;-78
2023/04/03 09:34:02;;;;;;;16.88;6.75;;;;;;;4.62;59.63;100719.13;5049876;28;20071;-78
2023/04/03 09:36:46;;;;;;;46.55;21.00;;;;;;;4.53;59.79;100721.75;5051764;28;20465;-78
2023/04/03 09:39:15;;;;;;;97.40;51.50;;;;;;;4.74;59.77;100735.41;5050057;28;20391;-78
2023/04/03 09:41:54;;;;;;;151.43;38.92;;;;;;;4.43;58.14;100732.13;5051749;28;20095;-78
2023/04/03 09:44:22;;;;;;;23.35;7.15;;;;;;;4.81;59.37;100707.84;5051733;28;20029;-78
2023/04/03 09:46:48;;;;;;;19.52;8.00;;;;;;;4.79;57.59;100748.28;5051446;28;20112;-78
2023/04/03 09:49:13;;;;;;;13.68;5.05;;;;;;;4.56;57.82;100740.66;5051463;28;20105;-78
2023/04/03 09:51:40;;;;;;;15.68;6.68;;;;;;;4.38;57.75;100751.91;5049037;28;20052;-78
2023/04/03 09:54:41;;;;;;;25.05;8.45;;;;;;;4.61;58.29;100751.81;5046616;28;20037;-78
2023/04/03 09:57:11;;;;;;;14.60;6.75;;;;;;;4.64;58.30;100743.22;5028375;28;20135;-78
2023/04/03 09:59:46;;;;;;;20.38;7.93;;;;;;;4.41;55.66;100733.81;5028893;28;20176;-78
2023/04/03 10:02:11;;;;;;;26.42;8.43;;;;;;;4.41;56.34;100749.31;5028604;28;20042;-78
2023/04/03 10:04:41;;;;;;;23.20;7.60;;;;;;;4.48;56.23;100752.72;5028853;28;20496;-78
2023/04/03 10:07:36;;;;;;;10.95;4.97;;;;;;;4.36;57.68;100752.78;5028282;28;20094;-78
2023/04/03 10:10:25;;;;;;;24.40;8.23;;;;;;;4.56;58.63;100750.13;5026929;28;20029;-78
2023/04/03 10:13:12;;;;;;;12.35;5.97;;;;;;;4.49;59.14;100744.97;5028478;28;20132;-78
2023/04/03 10:16:01;;;;;;;16.48;5.88;;;;;;;4.63;58.77;100737.16;5028945;28;20501;-78
2023/04/03 10:18:49;;;;;;;16.15;6.13;;;;;;;5.05;57.79;100747.25;5032127;28;20181;-78
2023/04/03 10:21:27;;;;;;;28.13;8.00;;;;;;;5.03;56.55;100741.25;5032668;28;20075;-78
2023/04/03 10:24:13;;;;;;;18.08;5.57;;;;;;;4.88;56.17;100739.63;5052184;28;20045;-78
2023/04/03 10:26:51;;;;;;;13.48;4.10;;;;;;;4.94;56.00;100727.53;5052229;28;20180;-78
2023/04/03 10:29:17;;;;;;;30.13;8.35;;;;;;;4.86;56.35;100749.09;5052516;28;20060;-78
2023/04/03 10:31:55;;;;;;;6.38;3.60;;;;;;;4.75;55.26;100751.72;5053297;28;20045;-78
2023/04/03 10:34:33;;;;;;;32.58;13.20;;;;;;;4.66;55.24;100750.06;5054544;28;20427;-78
2023/04/03 10:37:20;;;;;;;31.58;9.88;;;;;;;4.78;55.50;100753.44;5054509;28;20025;-78
2023/04/03 10:40:13;;;;;;;46.90;13.10;;;;;;;4.42;56.58;100750.16;5054646;28;20025;-78
2023/04/03 10:42:50;;;;;;;29.13;9.48;;;;;;;4.17;57.66;100716.75;5053308;28;20036;-78
2023/04/03 10:45:30;;;;;;;21.38;7.85;;;;;;;4.83;58.50;100734.47;5054557;28;20377;-78
2023/04/03 10:48:08;;;;;;;20.40;6.68;;;;;;;4.69;56.17;100725.97;5054211;28;20061;-78
2023/04/03 10:50:49;;;;;;;8.68;4.75;;;;;;;4.12;56.18;100733.94;5054643;28;20476;-78
2023/04/03 10:53:35;;;;;;;10.00;4.10;;;;;;;4.18;56.77;100741.66;5054373;28;20328;-78
2023/04/03 10:56:13;;;;;;;12.02;6.10;;;;;;;4.48;56.78;100726.94;5054093;28;20469;-78
2023/04/03 10:59:04;;;;;;;23.13;7.90;;;;;;;4.65;57.21;100721.69;5054543;28;20072;-78
2023/04/03 11:01:41;;;;;;;28.10;12.38;;;;;;;4.78;55.93;100710.44;5053927;28;20033;-78
2023/04/03 11:04:07;;;;;;;28.38;9.43;;;;;;;4.77;57.22;100724.22;5053804;28;20105;-78
2023/04/03 11:06:42;;;;;;;22.45;6.90;;;;;;;4.97;56.33;100731.81;5054056;28;20017;-78
2023/04/03 11:09:31;;;;;;;34.25;11.13;;;;;;;4.84;54.94;100722.44;5053721;28;20029;-78
2023/04/03 11:12:05;;;;;;;22.75;7.13;;;;;;;4.92;55.06;100731.84;5053770;28;20025;-78
2023/04/03 11:14:38;;;;;;;11.43;6.50;;;;;;;4.54;54.78;100707.97;5054258;28;20029;-78
2023/04/03 11:17:16;;;;;;;13.15;5.20;;;;;;;4.78;55.58;100722.47;5053411;28;20025;-78
2023/04/03 11:19:50;;;;;;;8.38;3.78;;;;;;;5.08;54.72;100711.09;5034169;28;20029;-78
2023/04/03 11:22:19;;;;;;;10.65;5.18;;;;;;;5.14;54.84;100717.09;5033625;28;20473;-78
2023/04/03 11:24:56;;;;;;;7.03;3.28;;;;;;;5.22;53.59;100717.00;5034166;28;20111;-78
2023/04/03 11:27:24;;;;;;;27.83;11.25;;;;;;;4.99;54.62;100714.59;5032886;28;20046;-78
2023/04/03 11:29:52;;;;;;;14.35;5.90;;;;;;;4.88;55.14;100700.91;5033864;28;20385;-78